Time;durP1;ratioP1;P1;durP2;ratioP2;P2;SDS_P1;SDS_P2;PMS_P1;PMS_P2;Temp;Humidity;BMP_temperature;BMP_pressure;BME280_temperature;BME280_humidity;BME280_pressure;Samples;Min_cycle;Max_cycle;Signal;HPM_P1;HPM_P2
2022/02/13 00:01:35;;;;;;;26.35;11.93;;;;;;;-1.65;94.52;141873.84;1679700;84;21039;-60
2022/02/13 00:04:02;;;;;;;25.52;10.68;;;;;;;-1.69;94.75;141865.13;1697303;83;21023;-59
2022/02/13 00:06:29;;;;;;;21.85;9.73;;;;;;;-1.70;94.90;141861.44;1679353;84;21074;-59
2022/02/13 00:08:56;;;;;;;20.08;9.98;;;;;;;-1.78;95.05;141842.77;1697379;83;21109;-59
2022/02/13 00:11:23;;;;;;;21.90;9.30;;;;;;;-1.86;95.36;141822.92;1697156;83;21039;-60
2022/02/13 00:13:50;;;;;;;25.02;10.15;;;;;;;-1.94;95.56;141804.31;1697084;83;21058;-60
2022/02/13 00:16:18;;;;;;;16.48;8.68;;;;;;;-1.94;95.91;141803.08;1696882;84;21089;-60
2022/02/13 00:18:45;;;;;;;21.80;9.25;;;;;;;-1.97;96.12;141798.11;1697835;83;20995;-60
2022/02/13 00:21:12;;;;;;;22.60;10.80;;;;;;;-1.94;96.27;141804.31;1697030;83;21035;-60
2022/02/13 00:23:39;;;;;;;19.48;9.00;;;;;;;-1.93;96.34;141805.55;1690008;83;21156;-61
2022/02/13 00:26:06;;;;;;;21.00;8.93;;;;;;;-1.91;96.40;141810.52;1707892;83;21008;-59
2022/02/13 00:28:36;;;;;;;21.00;9.90;;;;;;;-1.90;96.52;141814.25;1681811;84;21585;-60
2022/02/13 00:31:02;;;;;;;17.45;8.05;;;;;;;-1.87;96.53;141820.47;1679751;84;21071;-59
2022/02/13 00:33:29;;;;;;;19.67;8.20;;;;;;;-1.86;96.54;141822.92;1715794;83;21119;-60
2022/02/13 00:35:55;;;;;;;20.17;8.78;;;;;;;-1.87;96.59;141820.47;1726338;82;21493;-60
2022/02/13 00:38:22;;;;;;;15.28;7.58;;;;;;;-1.93;96.63;141806.83;1706170;82;21019;-60
2022/02/13 00:40:49;;;;;;;17.00;7.85;;;;;;;-1.99;96.80;141793.14;1697315;83;21050;-60
2022/02/13 00:43:16;;;;;;;17.62;8.20;;;;;;;-2.01;97.00;141786.94;1699079;83;21050;-60
2022/02/13 00:45:42;;;;;;;18.40;9.13;;;;;;;-1.99;97.21;141793.14;1697297;83;20967;-60
2022/02/13 00:48:10;;;;;;;17.05;7.95;;;;;;;-1.94;97.26;141803.08;1710201;82;21465;-59
2022/02/13 00:50:39;;;;;;;19.92;9.38;;;;;;;-1.92;97.17;141809.28;1726259;82;21063;-60
2022/02/13 00:53:07;;;;;;;17.70;8.43;;;;;;;-1.89;97.16;141816.72;1708254;83;21038;-60
2022/02/13 00:55:33;;;;;;;21.65;8.88;;;;;;;-1.87;97.08;141821.69;1699321;83;21011;-60
2022/02/13 00:58:00;;;;;;;23.22;9.70;;;;;;;-1.86;97.02;141824.16;1686530;83;21048;-60
2022/02/13 01:00:27;;;;;;;22.77;11.93;;;;;;;-1.84;97.01;141827.89;1705113;84;21079;-60
2022/02/13 01:02:54;;;;;;;28.30;13.55;;;;;;;-1.80;97.01;141839.08;1705299;84;21494;-60
2022/02/13 01:05:20;;;;;;;25.27;13.08;;;;;;;-1.78;96.94;141842.77;1702759;83;21044;-60
2022/02/13 01:07:47;;;;;;;24.07;13.20;;;;;;;-1.78;96.81;141844.05;1704685;83;21076;-61
2022/02/13 01:10:14;;;;;;;20.10;10.60;;;;;;;-1.79;96.72;141840.31;1711201;83;21487;-60
2022/02/13 01:12:41;;;;;;;20.17;10.15;;;;;;;-1.82;96.65;141832.88;1710961;82;21068;-64
2022/02/13 01:15:09;;;;;;;19.00;10.25;;;;;;;-1.85;96.75;141826.66;1712908;82;21072;-61
2022/02/13 01:17:36;;;;;;;16.82;9.33;;;;;;;-1.86;96.84;141822.92;1710952;84;21503;-61
2022/02/13 01:20:04;;;;;;;20.02;9.33;;;;;;;-1.88;96.98;141819.23;1734479;82;21068;-60
2022/02/13 01:22:33;;;;;;;19.42;8.33;;;;;;;-1.91;97.03;141811.75;1740003;81;21032;-60
2022/02/13 01:24:59;;;;;;;16.42;8.13;;;;;;;-1.93;97.09;141805.55;1740749;82;21137;-59
2022/02/13 01:27:27;;;;;;;14.25;7.70;;;;;;;-1.99;97.22;141793.14;1738587;81;21081;-60
2022/02/13 01:29:53;;;;;;;20.05;8.45;;;;;;;-2.07;97.34;141773.30;1723453;82;21012;-60
2022/02/13 01:32:21;;;;;;;14.60;8.00;;;;;;;-2.13;97.60;141758.44;1711073;84;21507;-60
2022/02/13 01:34:47;;;;;;;17.50;7.60;;;;;;;-2.16;97.90;141749.72;1711483;82;21060;-61
2022/02/13 01:37:14;;;;;;;13.83;7.42;;;;;;;-2.22;98.18;141736.08;1713324;82;21012;-60
2022/02/13 01:39:41;;;;;;;17.77;7.78;;;;;;;-2.27;98.38;141723.69;1721755;82;21503;-59
2022/02/13 01:42:09;;;;;;;16.05;8.55;;;;;;;-2.29;98.75;141719.98;1740654;82;21028;-59
2022/02/13 01:44:37;;;;;;;16.82;8.53;;;;;;;-2.30;98.93;141716.25;1740124;81;21040;-59
2022/02/13 01:47:07;;;;;;;17.52;8.38;;;;;;;-2.33;99.12;141708.81;1737559;81;21189;-59
2022/02/13 01:49:34;;;;;;;18.32;7.95;;;;;;;-2.34;99.26;141706.31;1735849;82;21024;-59
2022/02/13 01:52:04;;;;;;;18.20;9.88;;;;;;;-2.36;99.42;141701.39;1711042;82;21068;-59
2022/02/13 01:54:31;;;;;;;16.15;8.13;;;;;;;-2.38;99.54;141696.41;1711311;82;21024;-59
2022/02/13 01:56:59;;;;;;;18.23;9.30;;;;;;;-2.35;99.73;141703.84;1713945;82;21538;-58
2022/02/13 01:59:26;;;;;;;20.72;9.70;;;;;;;-2.33;99.90;141708.81;1727462;82;21063;-59
2022/02/13 02:01:53;;;;;;;16.05;9.10;;;;;;;-2.38;99.80;141696.41;1748624;81;20997;-59
2022/02/13 02:04:20;;;;;;;20.62;9.08;;;;;;;-2.41;100.00;141690.22;1748556;81;21005;-59
2022/02/13 02:06:47;;;;;;;15.83;8.95;;;;;;;-2.42;100.00;141688.98;1748800;82;21020;-58
2022/02/13 02:09:14;;;;;;;22.90;8.75;;;;;;;-2.44;100.00;141684.02;1746536;81;21028;-60
2022/02/13 02:11:40;;;;;;;18.62;8.33;;;;;;;-2.44;100.00;141682.78;1719559;82;21454;-59
2022/02/13 02:14:07;;;;;;;20.30;10.63;;;;;;;-2.45;100.00;141681.50;1748636;82;21192;-59
2022/02/13 02:16:36;;;;;;;18.07;9.45;;;;;;;-2.45;100.00;141681.50;1748312;82;21558;-59
2022/02/13 02:19:08;;;;;;;19.60;9.28;;;;;;;-2.51;100.00;141666.64;1746511;82;21180;-60
2022/02/13 02:21:38;;;;;;;17.17;8.90;;;;;;;-2.55;100.00;141656.70;1749157;81;21008;-60
2022/02/13 02:24:13;;;;;;;18.85;9.20;;;;;;;-2.56;100.00;141654.23;1748163;81;20981;-60
2022/02/13 02:26:42;;;;;;;20.17;8.73;;;;;;;-2.57;100.00;141651.78;1747738;82;21075;-60
2022/02/13 02:29:09;;;;;;;19.12;8.25;;;;;;;-2.59;100.00;141646.81;1744134;81;21055;-60
2022/02/13 02:31:36;;;;;;;16.17;7.55;;;;;;;-2.59;100.00;141646.81;1720992;82;21032;-60
2022/02/13 02:34:02;;;;;;;20.23;8.25;;;;;;;-2.57;100.00;141651.78;1719356;82;21044;-60
2022/02/13 02:36:29;;;;;;;17.30;8.18;;;;;;;-2.50;100.00;141667.88;1719017;83;21118;-60
2022/02/13 02:38:56;;;;;;;19.25;8.38;;;;;;;-2.54;100.00;141659.20;1719081;82;21542;-60
2022/02/13 02:41:23;;;;;;;13.48;6.97;;;;;;;-2.54;100.00;141659.20;1721295;82;21052;-60
2022/02/13 02:43:50;;;;;;;16.35;8.03;;;;;;;-2.53;100.00;141661.67;1719169;82;21040;-60
2022/02/13 02:46:16;;;;;;;14.33;7.67;;;;;;;-2.51;100.00;141666.64;1718909;83;21031;-60
2022/02/13 02:48:43;;;;;;;14.98;7.78;;;;;;;-2.47;100.00;141675.30;1719108;83;21008;-60
2022/02/13 02:51:10;;;;;;;15.05;7.22;;;;;;;-2.44;100.00;141684.02;1720847;82;21039;-60
2022/02/13 02:53:37;;;;;;;15.93;8.55;;;;;;;-2.46;100.00;141679.05;1727545;82;21004;-60
2022/02/13 02:56:04;;;;;;;15.88;8.60;;;;;;;-2.48;100.00;141672.84;1748561;82;20981;-60
2022/02/13 02:58:32;;;;;;;19.90;9.13;;;;;;;-2.48;100.00;141674.08;1741865;82;21040;-60
2022/02/13 03:00:59;;;;;;;16.05;8.80;;;;;;;-2.46;100.00;141679.05;1726432;82;21071;-60
2022/02/13 03:03:26;;;;;;;17.20;9.03;;;;;;;-2.43;100.00;141685.25;1711558;82;21040;-60
2022/02/13 03:05:53;;;;;;;20.95;9.80;;;;;;;-2.38;100.00;141696.41;1711445;82;21016;-60
2022/02/13 03:08:21;;;;;;;15.78;9.05;;;;;;;-2.40;100.00;141692.67;1711189;82;21085;-60
2022/02/13 03:10:50;;;;;;;23.95;10.68;;;;;;;-2.43;100.00;141686.47;1712798;82;21119;-60
2022/02/13 03:13:22;;;;;;;15.08;8.75;;;;;;;-2.38;100.00;141697.64;1711409;84;21113;-60
2022/02/13 03:15:51;;;;;;;15.65;8.65;;;;;;;-2.37;100.00;141698.87;1711247;84;21016;-60
2022/02/13 03:18:18;;;;;;;17.12;8.28;;;;;;;-2.38;100.00;141697.64;1711194;82;21483;-60
2022/02/13 03:20:50;;;;;;;14.95;8.38;;;;;;;-2.38;100.00;141696.41;1713307;82;21032;-60
2022/02/13 03:23:19;;;;;;;14.65;8.18;;;;;;;-2.45;100.00;141681.50;1711250;84;21019;-60
2022/02/13 03:25:46;;;;;;;15.53;8.28;;;;;;;-2.45;100.00;141680.27;1711196;84;21529;-60
2022/02/13 03:28:14;;;;;;;13.98;7.60;;;;;;;-2.46;100.00;141679.05;1711349;82;21040;-60
2022/02/13 03:30:42;;;;;;;15.85;7.35;;;;;;;-2.45;100.00;141681.50;1720395;82;21052;-60
2022/02/13 03:33:09;;;;;;;14.23;7.75;;;;;;;-2.47;100.00;141676.58;1740604;81;21012;-60
2022/02/13 03:35:37;;;;;;;13.83;7.87;;;;;;;-2.50;100.00;141667.88;1740571;82;21511;-60
2022/02/13 03:38:05;;;;;;;17.62;8.60;;;;;;;-2.54;100.00;141659.20;1740667;82;20984;-61
2022/02/13 03:40:32;;;;;;;13.48;7.95;;;;;;;-2.56;100.00;141654.23;1738004;82;21525;-61
2022/02/13 03:43:00;;;;;;;17.40;8.10;;;;;;;-2.57;100.00;141650.50;1740402;82;21000;-60
2022/02/13 03:45:27;;;;;;;16.12;8.88;;;;;;;-2.60;100.00;141644.30;1740355;81;21064;-60
2022/02/13 03:47:53;;;;;;;16.80;8.03;;;;;;;-2.57;100.00;141651.78;1740358;82;21048;-60
2022/02/13 03:50:20;;;;;;;13.80;7.60;;;;;;;-2.57;100.00;141651.78;1740393;81;21033;-60
2022/02/13 03:52:47;;;;;;;15.95;8.73;;;;;;;-2.55;100.00;141656.70;1738132;81;21077;-60
2022/02/13 03:55:16;;;;;;;16.20;8.13;;;;;;;-2.56;100.00;141654.23;1740397;81;20990;-61
2022/02/13 03:57:44;;;;;;;15.85;8.70;;;;;;;-2.60;100.00;141644.30;1740552;81;21041;-60
2022/02/13 04:00:16;;;;;;;18.87;8.40;;;;;;;-2.59;100.00;141645.58;1740713;82;20989;-60
2022/02/13 04:02:42;;;;;;;13.83;8.10;;;;;;;-2.63;100.00;141636.88;1738634;82;21086;-60
2022/02/13 04:05:11;;;;;;;14.33;9.05;;;;;;;-2.69;100.00;141622.02;1740343;81;21054;-59
2022/02/13 04:07:41;;;;;;;18.80;8.58;;;;;;;-2.72;100.00;141615.81;1740551;81;21083;-60
2022/02/13 04:10:11;;;;;;;17.75;9.48;;;;;;;-2.74;100.00;141609.62;1739741;82;21004;-59
2022/02/13 04:12:38;;;;;;;14.45;8.00;;;;;;;-2.76;100.00;141604.66;1738500;81;20996;-59
2022/02/13 04:15:06;;;;;;;19.57;9.43;;;;;;;-2.77;100.00;141603.41;1740559;82;21008;-61
2022/02/13 04:17:33;;;;;;;15.83;9.23;;;;;;;-2.77;100.00;141602.14;1740581;82;21009;-60
2022/02/13 04:20:00;;;;;;;17.35;9.00;;;;;;;-2.78;100.00;141600.91;1740653;82;21021;-60
2022/02/13 04:22:27;;;;;;;19.17;10.18;;;;;;;-2.80;100.00;141594.70;1738581;82;21498;-60
2022/02/13 04:24:54;;;;;;;19.00;10.32;;;;;;;-2.80;100.00;141594.70;1740321;81;21029;-60
2022/02/13 04:27:20;;;;;;;21.02;11.10;;;;;;;-2.82;100.00;141589.73;1740649;81;20992;-60
2022/02/13 04:29:47;;;;;;;22.17;9.93;;;;;;;-2.83;100.00;141588.52;1740394;82;21001;-60
2022/02/13 04:32:14;;;;;;;21.60;9.88;;;;;;;-2.85;100.00;141583.55;1731812;82;21047;-60
2022/02/13 04:34:42;;;;;;;20.77;10.10;;;;;;;-2.88;100.00;141577.34;1711299;82;21491;-60
2022/02/13 04:37:09;;;;;;;22.95;10.58;;;;;;;-2.89;100.00;141574.88;1711209;82;21055;-60
2022/02/13 04:39:36;;;;;;;21.25;10.23;;;;;;;-2.91;100.00;141568.69;1726907;82;20997;-60
2022/02/13 04:42:04;;;;;;;20.20;11.10;;;;;;;-2.95;100.00;141558.75;1727230;82;20977;-60
2022/02/13 04:44:32;;;;;;;21.57;10.70;;;;;;;-2.95;100.00;141560.03;1710863;84;20997;-60
2022/02/13 04:46:58;;;;;;;22.75;11.50;;;;;;;-2.93;100.00;141563.72;1711185;84;21616;-60
2022/02/13 04:49:25;;;;;;;23.27;11.95;;;;;;;-2.95;100.00;141560.03;1710927;84;21057;-60
2022/02/13 04:51:52;;;;;;;26.50;12.00;;;;;;;-2.93;100.00;141563.72;1713155;82;21032;-60
2022/02/13 04:54:19;;;;;;;20.05;10.28;;;;;;;-2.92;100.00;141566.22;1710883;82;21068;-60
2022/02/13 04:56:46;;;;;;;18.80;10.32;;;;;;;-2.91;100.00;141569.91;1710931;84;21072;-60
2022/02/13 04:59:13;;;;;;;21.50;10.18;;;;;;;-2.89;100.00;141574.88;1717649;82;21040;-60
2022/02/13 05:01:40;;;;;;;19.23;10.28;;;;;;;-2.86;100.00;141582.31;1720719;82;21029;-61
2022/02/13 05:04:06;;;;;;;18.23;10.18;;;;;;;-2.86;100.00;141582.31;1726799;82;21152;-59
2022/02/13 05:06:35;;;;;;;21.60;10.38;;;;;;;-2.84;100.00;141586.05;1729300;82;21000;-59
2022/02/13 05:09:03;;;;;;;18.45;10.72;;;;;;;-2.85;100.00;141583.55;1719057;83;21083;-59
2022/02/13 05:11:31;;;;;;;15.23;9.65;;;;;;;-2.90;100.00;141571.16;1727657;82;21135;-59
2022/02/13 05:14:01;;;;;;;18.42;10.48;;;;;;;-2.91;100.00;141569.91;1744838;82;21586;-60
2022/02/13 05:16:28;;;;;;;16.85;9.85;;;;;;;-2.94;100.00;141562.50;1747953;81;21451;-61
2022/02/13 05:18:55;;;;;;;19.40;10.25;;;;;;;-2.95;100.00;141560.03;1748317;81;21063;-61
2022/02/13 05:21:22;;;;;;;19.77;10.68;;;;;;;-2.92;100.00;141567.45;1745174;81;20996;-61
2022/02/13 05:23:48;;;;;;;18.77;11.38;;;;;;;-2.92;100.00;141567.45;1719219;82;21537;-61
2022/02/13 05:26:15;;;;;;;19.62;10.63;;;;;;;-2.91;100.00;141568.69;1719194;82;21003;-61
2022/02/13 05:28:42;;;;;;;22.22;10.90;;;;;;;-2.89;100.00;141573.66;1719028;83;21020;-60
2022/02/13 05:31:09;;;;;;;19.85;12.00;;;;;;;-2.87;100.00;141578.62;1719081;82;21008;-60
2022/02/13 05:33:36;;;;;;;20.12;10.68;;;;;;;-2.82;100.00;141591.02;1720980;82;21048;-59
2022/02/13 05:36:03;;;;;;;21.95;11.43;;;;;;;-2.78;100.00;141600.91;1718873;82;21044;-59
2022/02/13 05:38:31;;;;;;;20.30;11.03;;;;;;;-2.68;100.00;141624.47;1740950;82;21071;-60
2022/02/13 05:40:57;;;;;;;19.42;9.98;;;;;;;-2.59;100.00;141645.58;1724143;81;20996;-60
2022/02/13 05:43:24;;;;;;;16.23;9.65;;;;;;;-2.48;100.00;141672.84;1748299;81;21029;-59
2022/02/13 05:45:51;;;;;;;17.75;10.45;;;;;;;-2.41;100.00;141690.22;1748434;82;21040;-59
2022/02/13 05:48:17;;;;;;;20.40;10.00;;;;;;;-2.31;100.00;141713.78;1748374;81;21016;-60
2022/02/13 05:50:44;;;;;;;19.40;9.80;;;;;;;-1.65;100.00;141875.08;1748679;81;21060;-59
2022/02/13 05:53:10;;;;;;;19.05;10.20;;;;;;;-0.48;100.00;142158.19;1720090;82;21032;-60
2022/02/13 05:55:37;;;;;;;18.07;9.80;;;;;;;0.69;99.39;142441.58;1718782;82;21051;-60
2022/02/13 05:58:04;;;;;;;17.90;10.00;;;;;;;1.59;96.09;142660.58;1718805;83;21024;-61
2022/02/13 06:00:31;;;;;;;17.35;9.25;;;;;;;2.57;94.82;142899.66;1718996;83;21020;-61
2022/02/13 06:02:57;;;;;;;17.45;9.43;;;;;;;3.61;90.50;143153.95;1729180;82;21526;-61
2022/02/13 06:05:24;;;;;;;14.30;9.10;;;;;;;4.56;88.36;143384.72;1733633;82;20952;-61
2022/02/13 06:07:51;;;;;;;16.07;9.10;;;;;;;5.53;84.31;143621.92;1732275;82;20996;-61
2022/02/13 06:10:18;;;;;;;15.50;8.73;;;;;;;6.48;79.13;143854.36;1735432;82;21004;-61
2022/02/13 06:12:45;;;;;;;14.38;8.40;;;;;;;7.32;74.17;144058.20;1733680;82;20997;-62
2022/02/13 06:15:12;;;;;;;13.53;8.68;;;;;;;7.94;69.40;144210.87;1733598;82;21115;-62
2022/02/13 06:17:39;;;;;;;14.05;8.13;;;;;;;8.72;67.34;144401.19;1736296;82;21106;-61
2022/02/13 06:20:08;;;;;;;14.85;7.87;;;;;;;9.49;63.34;144589.09;1744640;82;20980;-64
2022/02/13 06:22:35;;;;;;;13.62;8.28;;;;;;;10.25;59.90;144774.63;1737925;82;21494;-62
2022/02/13 06:25:02;;;;;;;17.25;8.08;;;;;;;10.86;56.99;144925.17;1731595;82;21067;-61
2022/02/13 06:27:29;;;;;;;13.85;7.72;;;;;;;11.38;53.85;145053.19;1730292;81;21522;-61
2022/02/13 06:29:56;;;;;;;12.55;7.05;;;;;;;11.67;51.43;145123.45;1731739;82;21024;-61
2022/02/13 06:32:23;;;;;;;11.95;7.53;;;;;;;12.17;50.40;145246.56;1727434;82;21064;-60
2022/02/13 06:34:50;;;;;;;13.15;6.97;;;;;;;12.64;48.10;145360.84;1731013;82;21042;-61
2022/02/13 06:37:16;;;;;;;12.65;7.72;;;;;;;13.22;46.55;145504.11;1732600;82;21016;-61
2022/02/13 06:39:43;;;;;;;10.20;6.30;;;;;;;13.72;44.77;145626.12;1734082;82;21069;-60
2022/02/13 06:42:10;;;;;;;12.13;6.92;;;;;;;14.46;42.89;145809.72;1731458;81;21533;-60
2022/02/13 06:44:36;;;;;;;15.63;7.15;;;;;;;14.83;40.96;145900.34;1733314;82;21054;-60
2022/02/13 06:47:04;;;;;;;10.28;6.45;;;;;;;15.01;39.11;145943.14;1731486;82;21064;-61
2022/02/13 06:49:31;;;;;;;10.63;6.50;;;;;;;15.23;38.69;145997.28;1733467;82;21109;-60
2022/02/13 06:51:59;;;;;;;10.75;6.65;;;;;;;15.59;38.63;146086.66;1733945;82;21176;-61
2022/02/13 06:54:26;;;;;;;11.65;7.00;;;;;;;16.20;37.45;146237.83;1728988;82;21009;-60
2022/02/13 06:56:52;;;;;;;10.25;6.72;;;;;;;16.88;36.11;146405.47;1735360;82;21043;-60
2022/02/13 06:59:19;;;;;;;9.48;7.17;;;;;;;17.23;34.93;146491.22;1735007;81;21054;-61
2022/02/13 07:01:46;;;;;;;10.45;6.22;;;;;;;17.55;34.07;146569.36;1740621;82;21016;-61
2022/02/13 07:04:13;;;;;;;9.30;6.10;;;;;;;17.58;34.24;146576.97;1739441;82;21028;-60
2022/02/13 07:06:40;;;;;;;11.75;6.97;;;;;;;17.69;33.69;146603.44;1737016;81;21024;-61
2022/02/13 07:09:07;;;;;;;9.65;6.03;;;;;;;17.85;33.22;146642.56;1726420;82;21048;-61
2022/02/13 07:11:35;;;;;;;9.33;6.40;;;;;;;18.22;32.79;146734.67;1711421;82;21493;-60
2022/02/13 07:14:02;;;;;;;12.43;7.17;;;;;;;18.48;32.10;146799.00;1732634;81;21060;-61
2022/02/13 07:16:29;;;;;;;9.50;6.53;;;;;;;18.65;31.66;146840.66;1738657;82;21056;-61
2022/02/13 07:18:57;;;;;;;10.38;6.20;;;;;;;18.85;30.99;146889.89;1709941;82;21036;-61
2022/02/13 07:21:25;;;;;;;10.68;7.08;;;;;;;19.36;31.08;147014.88;1710825;84;21024;-61
2022/02/13 07:23:52;;;;;;;10.00;5.95;;;;;;;19.93;30.02;147156.39;1720946;82;21068;-61
2022/02/13 07:26:19;;;;;;;10.28;5.95;;;;;;;20.36;28.94;147262.52;1740529;82;21008;-61
2022/02/13 07:29:00;;;;;;;9.53;6.30;;;;;;;20.58;28.74;147318.17;1711331;82;21498;-61
2022/02/13 07:31:31;;;;;;;11.25;6.15;;;;;;;20.96;27.74;147411.70;1711188;83;21040;-62
2022/02/13 07:33:58;;;;;;;9.88;6.00;;;;;;;20.70;27.99;147345.95;1719415;81;21020;-61
2022/02/13 07:36:26;;;;;;;12.63;6.60;;;;;;;20.60;28.33;147321.94;1733088;81;21036;-61
2022/02/13 07:38:53;;;;;;;11.18;6.42;;;;;;;20.51;27.83;147300.42;1711220;84;21012;-61
2022/02/13 07:41:21;;;;;;;9.95;6.08;;;;;;;20.53;28.08;147305.48;1711216;84;21032;-61
2022/02/13 07:43:49;;;;;;;9.28;5.78;;;;;;;20.83;27.57;147378.80;1713008;82;21053;-61
2022/02/13 07:46:16;;;;;;;10.30;5.80;;;;;;;20.82;27.31;147376.30;1736648;82;21013;-61
2022/02/13 07:48:43;;;;;;;7.75;5.12;;;;;;;20.71;27.05;147348.47;1710963;84;21036;-61
2022/02/13 07:51:11;;;;;;;8.28;5.05;;;;;;;20.52;27.05;147302.94;1710985;84;21008;-61
2022/02/13 07:53:39;;;;;;;9.33;4.83;;;;;;;20.15;26.61;147211.97;1718088;82;21016;-61
2022/02/13 07:56:07;;;;;;;7.83;4.08;;;;;;;19.91;27.39;147151.33;1724341;82;21067;-61
2022/02/13 07:58:35;;;;;;;8.28;4.42;;;;;;;19.66;27.06;147089.37;1712593;83;21546;-61
2022/02/13 08:01:05;;;;;;;8.33;4.15;;;;;;;19.29;27.44;146999.75;1718860;83;21075;-61
2022/02/13 08:03:38;;;;;;;10.13;4.20;;;;;;;19.06;27.54;146941.69;1733675;82;21498;-62
2022/02/13 08:06:04;;;;;;;6.62;4.25;;;;;;;18.83;27.71;146886.13;1736325;82;21012;-62
2022/02/13 08:08:36;;;;;;;6.33;4.00;;;;;;;18.55;28.39;146816.67;1741107;81;21558;-61
2022/02/13 08:11:01;;;;;;;8.30;4.65;;;;;;;18.37;28.53;146772.52;1734553;82;20949;-62
2022/02/13 08:13:30;;;;;;;6.62;3.85;;;;;;;18.34;28.52;146763.66;1731927;82;21020;-61
2022/02/13 08:15:57;;;;;;;8.75;4.78;;;;;;;18.19;28.42;146727.06;1731866;81;21028;-61
2022/02/13 08:18:24;;;;;;;8.78;3.95;;;;;;;18.21;28.81;146732.11;1734297;82;21138;-61
2022/02/13 08:20:54;;;;;;;7.37;3.90;;;;;;;18.14;28.33;146714.44;1734383;82;21463;-61
2022/02/13 08:23:19;;;;;;;7.20;3.60;;;;;;;18.02;29.00;146685.47;1723499;82;21004;-62
2022/02/13 08:25:48;;;;;;;7.90;3.87;;;;;;;18.17;28.78;146722.05;1737206;82;21495;-61
2022/02/13 08:28:16;;;;;;;7.35;3.60;;;;;;;18.13;28.82;146711.94;1731329;81;21020;-61
2022/02/13 08:30:43;;;;;;;6.22;3.40;;;;;;;17.80;28.88;146631.20;1735197;82;20992;-61
2022/02/13 08:33:10;;;;;;;6.42;3.50;;;;;;;17.46;29.53;146546.69;1735345;82;21012;-62
2022/02/13 08:35:37;;;;;;;7.58;4.20;;;;;;;17.38;29.47;146527.78;1731272;82;20976;-62
2022/02/13 08:38:05;;;;;;;7.30;4.28;;;;;;;17.09;29.78;146455.89;1728624;82;21542;-61
2022/02/13 08:40:33;;;;;;;8.08;4.55;;;;;;;16.56;30.21;146326.02;1732264;82;20996;-61
2022/02/13 08:43:01;;;;;;;7.45;4.72;;;;;;;16.22;31.04;146242.88;1744397;82;21454;-62
2022/02/13 08:45:30;;;;;;;7.97;4.50;;;;;;;16.04;30.98;146198.80;1747951;82;20995;-61
2022/02/13 08:47:57;;;;;;;7.37;4.15;;;;;;;15.62;31.26;146094.20;1719607;82;21771;-60
2022/02/13 08:50:25;;;;;;;6.85;4.03;;;;;;;14.91;31.86;145920.52;1719176;83;21060;-60
2022/02/13 08:52:54;;;;;;;8.15;4.05;;;;;;;14.24;33.00;145754.38;1718913;83;20989;-57
2022/02/13 08:55:21;;;;;;;7.20;3.75;;;;;;;13.61;34.01;145600.97;1732998;82;21539;-60
2022/02/13 08:57:49;;;;;;;6.10;3.67;;;;;;;13.08;34.76;145470.19;1722112;82;21052;-60
2022/02/13 09:00:20;;;;;;;7.78;3.47;;;;;;;12.63;35.26;145358.36;1712774;82;21036;-60
2022/02/13 09:02:47;;;;;;;7.15;3.60;;;;;;;12.16;36.15;145245.31;1711256;84;21499;-60
2022/02/13 09:05:14;;;;;;;6.60;3.83;;;;;;;11.82;36.78;145159.88;1711384;82;21382;-60
2022/02/13 09:07:41;;;;;;;9.58;3.95;;;;;;;11.32;37.28;145038.09;1735274;82;21064;-59
2022/02/13 09:10:12;;;;;;;6.78;3.92;;;;;;;10.82;38.54;144915.16;1740449;82;21036;-60
2022/02/13 09:12:40;;;;;;;8.18;4.58;;;;;;;10.49;38.95;144834.87;1740351;81;21503;-59
2022/02/13 09:15:09;;;;;;;7.87;4.08;;;;;;;10.25;39.31;144774.63;1724280;81;21009;-59
2022/02/13 09:17:36;;;;;;;8.15;4.05;;;;;;;9.78;40.49;144661.80;1733783;82;20981;-59
2022/02/13 09:20:05;;;;;;;11.12;5.22;;;;;;;9.17;41.67;144511.42;1740119;82;21509;-59
2022/02/13 09:22:34;;;;;;;8.30;4.50;;;;;;;8.66;42.42;144387.42;1741018;82;21439;-59
2022/02/13 09:25:01;;;;;;;9.63;5.00;;;;;;;8.23;43.46;144282.19;1729347;81;21032;-59
2022/02/13 09:27:27;;;;;;;8.13;4.28;;;;;;;7.90;44.22;144200.84;1732050;81;20981;-59
2022/02/13 09:29:54;;;;;;;8.20;4.58;;;;;;;7.52;44.86;144108.23;1740338;82;21017;-59
2022/02/13 09:32:23;;;;;;;9.70;4.42;;;;;;;7.22;45.50;144033.19;1723680;82;21021;-59
2022/02/13 09:34:50;;;;;;;9.00;5.15;;;;;;;6.76;46.21;143920.64;1715450;82;21048;-59
2022/02/13 09:37:16;;;;;;;8.45;4.15;;;;;;;6.32;47.61;143813.16;1722229;82;21000;-59
2022/02/13 09:39:43;;;;;;;7.62;5.03;;;;;;;6.01;48.76;143738.17;1711052;84;21021;-59
2022/02/13 09:42:11;;;;;;;8.33;4.85;;;;;;;5.74;49.73;143673.13;1711462;84;21486;-59
2022/02/13 09:44:38;;;;;;;9.93;5.00;;;;;;;5.47;50.62;143606.95;1712899;82;21075;-59
2022/02/13 09:47:07;;;;;;;16.10;8.65;;;;;;;5.15;50.96;143529.50;1725480;82;21008;-59
2022/02/13 09:49:34;;;;;;;11.53;6.17;;;;;;;4.94;52.27;143478.33;1711470;82;20993;-59
2022/02/13 09:52:01;;;;;;;10.85;5.65;;;;;;;4.78;52.55;143439.64;1711066;84;21048;-59
2022/02/13 09:54:28;;;;;;;11.40;5.25;;;;;;;4.69;53.13;143415.92;1711181;83;21048;-59
2022/02/13 09:57:59;;;;;;;10.65;4.65;;;;;;;4.64;53.67;143403.44;1717459;82;21044;-59
2022/02/13 09:59:24;;;;;;;9.78;4.53;;;;;;;4.60;53.85;143393.44;1708118;82;21495;-59
2022/02/13 10:01:51;;;;;;;7.78;3.75;;;;;;;4.50;53.85;143369.72;1711025;84;21084;-58
2022/02/13 10:04:20;;;;;;;9.55;4.50;;;;;;;4.43;53.84;143353.53;1711018;82;21141;-59
2022/02/13 10:06:46;;;;;;;7.67;4.00;;;;;;;4.37;53.99;143337.28;1712591;82;21014;-59
2022/02/13 10:09:13;;;;;;;7.37;4.00;;;;;;;4.28;54.48;143316.09;1740452;82;21061;-59
2022/02/13 10:11:43;;;;;;;6.78;3.65;;;;;;;4.16;54.48;143286.14;1740454;82;21025;-59
2022/02/13 10:14:15;;;;;;;6.33;3.25;;;;;;;4.11;54.79;143274.91;1740502;82;21067;-59
2022/02/13 10:16:46;;;;;;;8.40;3.87;;;;;;;4.14;54.85;143283.62;1721297;82;21032;-58
2022/02/13 10:19:26;;;;;;;7.40;3.98;;;;;;;4.20;54.99;143296.09;1734084;82;21549;-59
2022/02/13 10:22:04;;;;;;;8.40;4.50;;;;;;;4.29;55.37;143318.56;1739482;82;21544;-59
2022/02/13 10:24:33;;;;;;;6.95;3.47;;;;;;;4.35;56.00;143333.53;1739551;81;21068;-59
2022/02/13 10:27:15;;;;;;;7.15;4.25;;;;;;;4.42;55.72;143351.00;1740576;82;21056;-59
2022/02/13 10:29:45;;;;;;;8.98;4.17;;;;;;;4.47;55.87;143363.48;1711913;82;21083;-59
2022/02/13 10:32:25;;;;;;;7.45;4.05;;;;;;;4.50;55.82;143369.72;1710450;82;21063;-59
2022/02/13 10:35:12;;;;;;;11.93;4.45;;;;;;;4.60;55.91;143394.67;1711148;83;21482;-59
2022/02/13 10:37:51;;;;;;;7.42;3.72;;;;;;;4.70;55.43;143418.41;1712725;82;21064;-59
2022/02/13 10:40:25;;;;;;;6.45;3.22;;;;;;;4.75;55.23;143430.87;1740883;81;21503;-59
2022/02/13 10:43:09;;;;;;;5.75;3.10;;;;;;;4.81;54.90;143445.87;1740461;82;21005;-59
2022/02/13 10:45:39;;;;;;;8.73;3.33;;;;;;;4.76;54.17;143433.41;1740820;81;21037;-59
2022/02/13 10:48:10;;;;;;;9.13;4.20;;;;;;;4.73;54.21;143425.88;1733810;82;21068;-59
2022/02/13 10:50:40;;;;;;;8.08;4.25;;;;;;;4.76;54.15;143434.64;1713677;82;20992;-59
2022/02/13 10:53:10;;;;;;;7.80;3.90;;;;;;;4.98;54.21;143488.28;1711248;84;21518;-59
2022/02/13 10:55:38;;;;;;;9.93;4.28;;;;;;;5.11;53.27;143518.27;1711553;82;20988;-59
2022/02/13 10:58:06;;;;;;;9.40;3.60;;;;;;;5.14;52.84;143525.75;1716277;82;21004;-59
2022/02/13 11:00:37;;;;;;;6.83;3.12;;;;;;;5.09;52.42;143513.25;1749487;80;21012;-59
2022/02/13 11:03:06;;;;;;;7.33;3.50;;;;;;;5.01;52.18;143494.53;1754504;81;21016;-59
2022/02/13 11:05:38;;;;;;;8.50;3.80;;;;;;;4.92;52.72;143473.33;1754522;81;20961;-59
2022/02/13 11:08:13;;;;;;;7.60;2.98;;;;;;;4.87;52.59;143460.84;1744824;81;21028;-59
2022/02/13 11:10:44;;;;;;;6.67;2.85;;;;;;;4.78;52.46;143439.64;1724749;83;21019;-59
2022/02/13 11:13:14;;;;;;;5.95;3.42;;;;;;;4.73;52.61;143427.16;1724908;83;21019;-58
2022/02/13 11:15:44;;;;;;;6.65;3.20;;;;;;;4.68;52.82;143413.41;1724750;82;21008;-59
2022/02/13 11:18:19;;;;;;;4.67;2.62;;;;;;;4.73;53.07;143427.16;1735059;82;21026;-59
2022/02/13 11:20:46;;;;;;;6.70;3.42;;;;;;;4.74;53.35;143429.64;1753930;80;21015;-59